<?xml version="1.0" encoding="UTF-8" standalone="no" ?>
<gpx xmlns="http://www.topografix.com/GPX/1/1" xmlns:xsi="http://www.w3.org/2001/XMLSchema-instance" xsi:schemaLocation="http://www.topografix.com/GPX/1/1 http://www.topografix.com/GPX/1/1/gpx.xsd" version="1.1" creator="VisuGPX - https://www.visugpx.com">
  <metadata>
    <name>Pibeste</name>
    <desc><![CDATA[Départ du parking du Cap de la Serre. Montée au Pène de Souquète et au Pibeste.]]></desc>
  </metadata>
  <wpt lat="43.06904" lon="-0.09156">
    <ele>731.47</ele>
    <name><![CDATA[]]></name>
    <type><![CDATA[Point de départ]]></type>
  </wpt>
  <wpt lat="43.06899" lon="-0.09151">
    <ele>724.82</ele>
    <name><![CDATA[]]></name>
    <desc><![CDATA[<p><br /><h3>Nom: Segment: 1</h3><br />Type: Indéfini<br/>Heure de départ: 09:03 21 mai 2026<br/>Heure d'arrivée: 11:29 21 mai 2026<br/>Distance: 9,1km (02:26)<br/>Temps déplacement: 02:15<br/>Vitesse moyenne: 3,74 km/h<br/>Vitesse en mouvement: 4,05 km/h<br/>Vitesse Max.: 12,94 km/h<br/>Altitude minimale: 721 m<br/>Altitude maximale: 1417 m<br/>Vitesse de montée: 567,8 m/h<br/>Vitesse de descente: 721,8 m/h<br/>Dénivelé positif: 706 m<br/>Dénivelé négatif: 715 m<br/>Temps de montée: 01:14<br/>Temps de descente: 00:59<br/></p>]]></desc>
    <type><![CDATA[Point d'arrivée]]></type>
  </wpt>
  <trk>
    <name><![CDATA[Pibeste]]></name>
    <desc><![CDATA[<p>Type: Course nature<br/>Heure de départ: 09:03 21 mai 2026<br/>Heure d'arrivée: 11:29 21 mai 2026<br/>Distance: 9,1 km (02:26)<br/>Temps déplacement: 02:15<br/>Vitesse moyenne: 3,74 km/h<br/>Vitesse en mouvement: 4,05 km/h<br/>Vitesse Max.: 12,94 km/h<br/>Altitude minimale: 721 m<br/>Altitude maximale: 1417 m<br/>Vitesse de montée: 567,8 m/h<br/>Vitesse de descente: 721,8 m/h<br/>Dénivelé positif: 706 m<br/>Dénivelé négatif: 715 m<br/>Temps de montée: 01:14<br/>Temps de descente: 00:59<br/></p><hr align="center" width="480" style="height: 2px; width: 517px"/>]]></desc>
    <trkseg>
      <trkpt lat="43.06904" lon="-0.09156">
        <ele>731.47</ele>
        <time>2026-05-21T07:03:16.000Z</time>
      </trkpt>
      <trkpt lat="43.06895" lon="-0.09133">
        <ele>730.86</ele>
        <time>2026-05-21T07:04:34.000Z</time>
      </trkpt>
      <trkpt lat="43.0688" lon="-0.09118">
        <ele>731.61</ele>
        <time>2026-05-21T07:04:50.000Z</time>
      </trkpt>
      <trkpt lat="43.06861" lon="-0.09122">
        <ele>733.42</ele>
        <time>2026-05-21T07:05:06.000Z</time>
      </trkpt>
      <trkpt lat="43.06843" lon="-0.09125">
        <ele>735.54</ele>
        <time>2026-05-21T07:05:20.000Z</time>
      </trkpt>
      <trkpt lat="43.06824" lon="-0.09129">
        <ele>733.98</ele>
        <time>2026-05-21T07:05:43.000Z</time>
      </trkpt>
      <trkpt lat="43.06806" lon="-0.09137">
        <ele>732.8</ele>
        <time>2026-05-21T07:06:00.000Z</time>
      </trkpt>
      <trkpt lat="43.06787" lon="-0.0914">
        <ele>737.96</ele>
        <time>2026-05-21T07:06:13.000Z</time>
      </trkpt>
      <trkpt lat="43.0677" lon="-0.09147">
        <ele>741.13</ele>
        <time>2026-05-21T07:06:25.000Z</time>
      </trkpt>
      <trkpt lat="43.06751" lon="-0.09147">
        <ele>745.88</ele>
        <time>2026-05-21T07:06:46.000Z</time>
      </trkpt>
      <trkpt lat="43.06739" lon="-0.09128">
        <ele>746.04</ele>
        <time>2026-05-21T07:07:00.000Z</time>
      </trkpt>
      <trkpt lat="43.0673" lon="-0.09106">
        <ele>744.64</ele>
        <time>2026-05-21T07:07:12.000Z</time>
      </trkpt>
      <trkpt lat="43.06719" lon="-0.09085">
        <ele>742.33</ele>
        <time>2026-05-21T07:07:20.000Z</time>
      </trkpt>
      <trkpt lat="43.06706" lon="-0.09065">
        <ele>742.21</ele>
        <time>2026-05-21T07:07:27.000Z</time>
      </trkpt>
      <trkpt lat="43.06695" lon="-0.09046">
        <ele>745.44</ele>
        <time>2026-05-21T07:07:34.000Z</time>
      </trkpt>
      <trkpt lat="43.06685" lon="-0.09025">
        <ele>747.71</ele>
        <time>2026-05-21T07:07:43.000Z</time>
      </trkpt>
      <trkpt lat="43.06675" lon="-0.09003">
        <ele>748.52</ele>
        <time>2026-05-21T07:07:52.000Z</time>
      </trkpt>
      <trkpt lat="43.06664" lon="-0.08982">
        <ele>749.29</ele>
        <time>2026-05-21T07:08:02.000Z</time>
      </trkpt>
      <trkpt lat="43.06655" lon="-0.08959">
        <ele>749.97</ele>
        <time>2026-05-21T07:08:13.000Z</time>
      </trkpt>
      <trkpt lat="43.06646" lon="-0.08935">
        <ele>753.13</ele>
        <time>2026-05-21T07:08:26.000Z</time>
      </trkpt>
      <trkpt lat="43.06637" lon="-0.08913">
        <ele>755.71</ele>
        <time>2026-05-21T07:08:43.000Z</time>
      </trkpt>
      <trkpt lat="43.0663" lon="-0.08888">
        <ele>754.89</ele>
        <time>2026-05-21T07:08:58.000Z</time>
      </trkpt>
      <trkpt lat="43.06625" lon="-0.08865">
        <ele>750.34</ele>
        <time>2026-05-21T07:09:11.000Z</time>
      </trkpt>
      <trkpt lat="43.06615" lon="-0.08841">
        <ele>754.37</ele>
        <time>2026-05-21T07:09:19.000Z</time>
      </trkpt>
      <trkpt lat="43.06604" lon="-0.0882">
        <ele>757.73</ele>
        <time>2026-05-21T07:09:29.000Z</time>
      </trkpt>
      <trkpt lat="43.06597" lon="-0.08797">
        <ele>757.75</ele>
        <time>2026-05-21T07:09:41.000Z</time>
      </trkpt>
      <trkpt lat="43.06584" lon="-0.08779">
        <ele>764.41</ele>
        <time>2026-05-21T07:09:52.000Z</time>
      </trkpt>
      <trkpt lat="43.0657" lon="-0.08764">
        <ele>766.77</ele>
        <time>2026-05-21T07:10:05.000Z</time>
      </trkpt>
      <trkpt lat="43.06557" lon="-0.08744">
        <ele>769.5</ele>
        <time>2026-05-21T07:10:17.000Z</time>
      </trkpt>
      <trkpt lat="43.06542" lon="-0.08726">
        <ele>770.58</ele>
        <time>2026-05-21T07:10:28.000Z</time>
      </trkpt>
      <trkpt lat="43.0653" lon="-0.08704">
        <ele>773.65</ele>
        <time>2026-05-21T07:10:35.000Z</time>
      </trkpt>
      <trkpt lat="43.0652" lon="-0.08682">
        <ele>779.11</ele>
        <time>2026-05-21T07:10:44.000Z</time>
      </trkpt>
      <trkpt lat="43.06508" lon="-0.08662">
        <ele>781.61</ele>
        <time>2026-05-21T07:11:02.000Z</time>
      </trkpt>
      <trkpt lat="43.06494" lon="-0.08645">
        <ele>779.8</ele>
        <time>2026-05-21T07:11:24.000Z</time>
      </trkpt>
      <trkpt lat="43.06481" lon="-0.08624">
        <ele>784.57</ele>
        <time>2026-05-21T07:11:33.000Z</time>
      </trkpt>
      <trkpt lat="43.06469" lon="-0.08605">
        <ele>788.44</ele>
        <time>2026-05-21T07:11:43.000Z</time>
      </trkpt>
      <trkpt lat="43.06456" lon="-0.08585">
        <ele>792.26</ele>
        <time>2026-05-21T07:11:54.000Z</time>
      </trkpt>
      <trkpt lat="43.06443" lon="-0.08566">
        <ele>795</ele>
        <time>2026-05-21T07:12:09.000Z</time>
      </trkpt>
      <trkpt lat="43.06429" lon="-0.08548">
        <ele>796.8</ele>
        <time>2026-05-21T07:12:25.000Z</time>
      </trkpt>
      <trkpt lat="43.06412" lon="-0.08536">
        <ele>801.39</ele>
        <time>2026-05-21T07:12:39.000Z</time>
      </trkpt>
      <trkpt lat="43.06394" lon="-0.08533">
        <ele>802.86</ele>
        <time>2026-05-21T07:12:53.000Z</time>
      </trkpt>
      <trkpt lat="43.06399" lon="-0.08558">
        <ele>804.41</ele>
        <time>2026-05-21T07:13:08.000Z</time>
      </trkpt>
      <trkpt lat="43.06403" lon="-0.08583">
        <ele>808.03</ele>
        <time>2026-05-21T07:13:21.000Z</time>
      </trkpt>
      <trkpt lat="43.06403" lon="-0.08608">
        <ele>812.19</ele>
        <time>2026-05-21T07:13:33.000Z</time>
      </trkpt>
      <trkpt lat="43.06399" lon="-0.08632">
        <ele>812.23</ele>
        <time>2026-05-21T07:13:45.000Z</time>
      </trkpt>
      <trkpt lat="43.06395" lon="-0.08657">
        <ele>814.71</ele>
        <time>2026-05-21T07:13:57.000Z</time>
      </trkpt>
      <trkpt lat="43.0639" lon="-0.08681">
        <ele>816.1</ele>
        <time>2026-05-21T07:14:09.000Z</time>
      </trkpt>
      <trkpt lat="43.06386" lon="-0.08706">
        <ele>817.82</ele>
        <time>2026-05-21T07:14:21.000Z</time>
      </trkpt>
      <trkpt lat="43.06382" lon="-0.08732">
        <ele>820.52</ele>
        <time>2026-05-21T07:14:32.000Z</time>
      </trkpt>
      <trkpt lat="43.06377" lon="-0.08757">
        <ele>821.84</ele>
        <time>2026-05-21T07:14:43.000Z</time>
      </trkpt>
      <trkpt lat="43.0637" lon="-0.08782">
        <ele>822.72</ele>
        <time>2026-05-21T07:14:55.000Z</time>
      </trkpt>
      <trkpt lat="43.06364" lon="-0.08806">
        <ele>824.45</ele>
        <time>2026-05-21T07:15:07.000Z</time>
      </trkpt>
      <trkpt lat="43.06357" lon="-0.0883">
        <ele>826.61</ele>
        <time>2026-05-21T07:15:19.000Z</time>
      </trkpt>
      <trkpt lat="43.0635" lon="-0.08854">
        <ele>827.91</ele>
        <time>2026-05-21T07:15:31.000Z</time>
      </trkpt>
      <trkpt lat="43.0634" lon="-0.08876">
        <ele>828.7</ele>
        <time>2026-05-21T07:15:44.000Z</time>
      </trkpt>
      <trkpt lat="43.06331" lon="-0.089">
        <ele>829.85</ele>
        <time>2026-05-21T07:15:58.000Z</time>
      </trkpt>
      <trkpt lat="43.06322" lon="-0.08923">
        <ele>831.5</ele>
        <time>2026-05-21T07:16:11.000Z</time>
      </trkpt>
      <trkpt lat="43.06314" lon="-0.08946">
        <ele>832.55</ele>
        <time>2026-05-21T07:16:23.000Z</time>
      </trkpt>
      <trkpt lat="43.06304" lon="-0.08968">
        <ele>833.54</ele>
        <time>2026-05-21T07:16:35.000Z</time>
      </trkpt>
      <trkpt lat="43.06293" lon="-0.08989">
        <ele>835.28</ele>
        <time>2026-05-21T07:16:47.000Z</time>
      </trkpt>
      <trkpt lat="43.06283" lon="-0.09012">
        <ele>837.67</ele>
        <time>2026-05-21T07:17:00.000Z</time>
      </trkpt>
      <trkpt lat="43.06275" lon="-0.09034">
        <ele>841.18</ele>
        <time>2026-05-21T07:17:17.000Z</time>
      </trkpt>
      <trkpt lat="43.06263" lon="-0.09054">
        <ele>842.43</ele>
        <time>2026-05-21T07:17:31.000Z</time>
      </trkpt>
      <trkpt lat="43.06249" lon="-0.09072">
        <ele>844.91</ele>
        <time>2026-05-21T07:17:44.000Z</time>
      </trkpt>
      <trkpt lat="43.06241" lon="-0.09094">
        <ele>845.95</ele>
        <time>2026-05-21T07:17:56.000Z</time>
      </trkpt>
      <trkpt lat="43.06233" lon="-0.09118">
        <ele>845.24</ele>
        <time>2026-05-21T07:18:07.000Z</time>
      </trkpt>
      <trkpt lat="43.06226" lon="-0.09141">
        <ele>847.67</ele>
        <time>2026-05-21T07:18:16.000Z</time>
      </trkpt>
      <trkpt lat="43.06215" lon="-0.09162">
        <ele>848.81</ele>
        <time>2026-05-21T07:18:26.000Z</time>
      </trkpt>
      <trkpt lat="43.06205" lon="-0.09185">
        <ele>852.77</ele>
        <time>2026-05-21T07:18:38.000Z</time>
      </trkpt>
      <trkpt lat="43.06194" lon="-0.09205">
        <ele>851.97</ele>
        <time>2026-05-21T07:18:50.000Z</time>
      </trkpt>
      <trkpt lat="43.06181" lon="-0.09223">
        <ele>855.25</ele>
        <time>2026-05-21T07:19:03.000Z</time>
      </trkpt>
      <trkpt lat="43.06168" lon="-0.09241">
        <ele>854.79</ele>
        <time>2026-05-21T07:19:15.000Z</time>
      </trkpt>
      <trkpt lat="43.06153" lon="-0.09256">
        <ele>856.23</ele>
        <time>2026-05-21T07:19:27.000Z</time>
      </trkpt>
      <trkpt lat="43.06155" lon="-0.09282">
        <ele>856.83</ele>
        <time>2026-05-21T07:19:41.000Z</time>
      </trkpt>
      <trkpt lat="43.06155" lon="-0.09308">
        <ele>859.1</ele>
        <time>2026-05-21T07:19:54.000Z</time>
      </trkpt>
      <trkpt lat="43.06146" lon="-0.09331">
        <ele>861.72</ele>
        <time>2026-05-21T07:20:08.000Z</time>
      </trkpt>
      <trkpt lat="43.06136" lon="-0.09352">
        <ele>862.39</ele>
        <time>2026-05-21T07:20:24.000Z</time>
      </trkpt>
      <trkpt lat="43.06127" lon="-0.09376">
        <ele>865.68</ele>
        <time>2026-05-21T07:20:36.000Z</time>
      </trkpt>
      <trkpt lat="43.06118" lon="-0.09397">
        <ele>869.19</ele>
        <time>2026-05-21T07:20:49.000Z</time>
      </trkpt>
      <trkpt lat="43.06107" lon="-0.09417">
        <ele>871.17</ele>
        <time>2026-05-21T07:21:01.000Z</time>
      </trkpt>
      <trkpt lat="43.06097" lon="-0.09438">
        <ele>874.72</ele>
        <time>2026-05-21T07:21:14.000Z</time>
      </trkpt>
      <trkpt lat="43.06083" lon="-0.09457">
        <ele>876.95</ele>
        <time>2026-05-21T07:21:26.000Z</time>
      </trkpt>
      <trkpt lat="43.06072" lon="-0.09476">
        <ele>875.49</ele>
        <time>2026-05-21T07:21:39.000Z</time>
      </trkpt>
      <trkpt lat="43.06058" lon="-0.09492">
        <ele>873.32</ele>
        <time>2026-05-21T07:21:52.000Z</time>
      </trkpt>
      <trkpt lat="43.06044" lon="-0.09511">
        <ele>878.89</ele>
        <time>2026-05-21T07:22:07.000Z</time>
      </trkpt>
      <trkpt lat="43.06032" lon="-0.09529">
        <ele>880.49</ele>
        <time>2026-05-21T07:22:18.000Z</time>
      </trkpt>
      <trkpt lat="43.06017" lon="-0.09545">
        <ele>882.72</ele>
        <time>2026-05-21T07:22:31.000Z</time>
      </trkpt>
      <trkpt lat="43.06005" lon="-0.09565">
        <ele>887.86</ele>
        <time>2026-05-21T07:22:40.000Z</time>
      </trkpt>
      <trkpt lat="43.0599" lon="-0.09581">
        <ele>886.31</ele>
        <time>2026-05-21T07:22:50.000Z</time>
      </trkpt>
      <trkpt lat="43.05977" lon="-0.09598">
        <ele>892.53</ele>
        <time>2026-05-21T07:23:04.000Z</time>
      </trkpt>
      <trkpt lat="43.0596" lon="-0.09611">
        <ele>890.95</ele>
        <time>2026-05-21T07:23:18.000Z</time>
      </trkpt>
      <trkpt lat="43.05943" lon="-0.09622">
        <ele>891.09</ele>
        <time>2026-05-21T07:23:31.000Z</time>
      </trkpt>
      <trkpt lat="43.05925" lon="-0.09632">
        <ele>891.32</ele>
        <time>2026-05-21T07:23:44.000Z</time>
      </trkpt>
      <trkpt lat="43.05909" lon="-0.09644">
        <ele>889.03</ele>
        <time>2026-05-21T07:23:57.000Z</time>
      </trkpt>
      <trkpt lat="43.05892" lon="-0.09654">
        <ele>888.42</ele>
        <time>2026-05-21T07:24:10.000Z</time>
      </trkpt>
      <trkpt lat="43.05874" lon="-0.09664">
        <ele>884.13</ele>
        <time>2026-05-21T07:24:23.000Z</time>
      </trkpt>
      <trkpt lat="43.05858" lon="-0.09673">
        <ele>885.42</ele>
        <time>2026-05-21T07:24:35.000Z</time>
      </trkpt>
      <trkpt lat="43.05839" lon="-0.09678">
        <ele>885.78</ele>
        <time>2026-05-21T07:24:48.000Z</time>
      </trkpt>
      <trkpt lat="43.05822" lon="-0.09687">
        <ele>891.14</ele>
        <time>2026-05-21T07:25:00.000Z</time>
      </trkpt>
      <trkpt lat="43.05803" lon="-0.09692">
        <ele>888.52</ele>
        <time>2026-05-21T07:25:14.000Z</time>
      </trkpt>
      <trkpt lat="43.05784" lon="-0.09693">
        <ele>890.87</ele>
        <time>2026-05-21T07:25:26.000Z</time>
      </trkpt>
      <trkpt lat="43.05766" lon="-0.09697">
        <ele>887.68</ele>
        <time>2026-05-21T07:25:41.000Z</time>
      </trkpt>
      <trkpt lat="43.05748" lon="-0.09702">
        <ele>890.94</ele>
        <time>2026-05-21T07:25:54.000Z</time>
      </trkpt>
      <trkpt lat="43.05732" lon="-0.09714">
        <ele>890.36</ele>
        <time>2026-05-21T07:26:02.000Z</time>
      </trkpt>
      <trkpt lat="43.05714" lon="-0.09723">
        <ele>893.34</ele>
        <time>2026-05-21T07:26:11.000Z</time>
      </trkpt>
      <trkpt lat="43.05695" lon="-0.09724">
        <ele>899.21</ele>
        <time>2026-05-21T07:26:25.000Z</time>
      </trkpt>
      <trkpt lat="43.05677" lon="-0.09729">
        <ele>902.39</ele>
        <time>2026-05-21T07:26:38.000Z</time>
      </trkpt>
      <trkpt lat="43.05663" lon="-0.09748">
        <ele>908.4</ele>
        <time>2026-05-21T07:26:52.000Z</time>
      </trkpt>
      <trkpt lat="43.05649" lon="-0.09764">
        <ele>910.61</ele>
        <time>2026-05-21T07:27:04.000Z</time>
      </trkpt>
      <trkpt lat="43.05632" lon="-0.09772">
        <ele>911.73</ele>
        <time>2026-05-21T07:27:17.000Z</time>
      </trkpt>
      <trkpt lat="43.05616" lon="-0.09785">
        <ele>916.62</ele>
        <time>2026-05-21T07:27:34.000Z</time>
      </trkpt>
      <trkpt lat="43.05608" lon="-0.09807">
        <ele>924.17</ele>
        <time>2026-05-21T07:27:48.000Z</time>
      </trkpt>
      <trkpt lat="43.056" lon="-0.0983">
        <ele>931.43</ele>
        <time>2026-05-21T07:28:02.000Z</time>
      </trkpt>
      <trkpt lat="43.05581" lon="-0.09831">
        <ele>936.58</ele>
        <time>2026-05-21T07:28:44.000Z</time>
      </trkpt>
      <trkpt lat="43.05575" lon="-0.09855">
        <ele>950.03</ele>
        <time>2026-05-21T07:29:17.000Z</time>
      </trkpt>
      <trkpt lat="43.05559" lon="-0.09868">
        <ele>942.72</ele>
        <time>2026-05-21T07:29:39.000Z</time>
      </trkpt>
      <trkpt lat="43.05547" lon="-0.09848">
        <ele>959.03</ele>
        <time>2026-05-21T07:30:15.000Z</time>
      </trkpt>
      <trkpt lat="43.05536" lon="-0.09828">
        <ele>968.56</ele>
        <time>2026-05-21T07:30:31.000Z</time>
      </trkpt>
      <trkpt lat="43.05526" lon="-0.09806">
        <ele>975.89</ele>
        <time>2026-05-21T07:30:48.000Z</time>
      </trkpt>
      <trkpt lat="43.05518" lon="-0.09829">
        <ele>973.96</ele>
        <time>2026-05-21T07:31:31.000Z</time>
      </trkpt>
      <trkpt lat="43.05515" lon="-0.09853">
        <ele>978.36</ele>
        <time>2026-05-21T07:31:52.000Z</time>
      </trkpt>
      <trkpt lat="43.05506" lon="-0.0983">
        <ele>995.51</ele>
        <time>2026-05-21T07:32:20.000Z</time>
      </trkpt>
      <trkpt lat="43.05492" lon="-0.09847">
        <ele>989.87</ele>
        <time>2026-05-21T07:32:51.000Z</time>
      </trkpt>
      <trkpt lat="43.05475" lon="-0.09838">
        <ele>999.46</ele>
        <time>2026-05-21T07:33:21.000Z</time>
      </trkpt>
      <trkpt lat="43.05466" lon="-0.09816">
        <ele>1003.34</ele>
        <time>2026-05-21T07:33:43.000Z</time>
      </trkpt>
      <trkpt lat="43.05465" lon="-0.09841">
        <ele>1008.3</ele>
        <time>2026-05-21T07:34:20.000Z</time>
      </trkpt>
      <trkpt lat="43.05462" lon="-0.09866">
        <ele>1013.27</ele>
        <time>2026-05-21T07:34:46.000Z</time>
      </trkpt>
      <trkpt lat="43.05462" lon="-0.09891">
        <ele>1023.61</ele>
        <time>2026-05-21T07:35:11.000Z</time>
      </trkpt>
      <trkpt lat="43.05462" lon="-0.09916">
        <ele>1029.6</ele>
        <time>2026-05-21T07:35:39.000Z</time>
      </trkpt>
      <trkpt lat="43.05454" lon="-0.09939">
        <ele>1031.29</ele>
        <time>2026-05-21T07:36:20.000Z</time>
      </trkpt>
      <trkpt lat="43.05453" lon="-0.09964">
        <ele>1034.43</ele>
        <time>2026-05-21T07:36:42.000Z</time>
      </trkpt>
      <trkpt lat="43.05459" lon="-0.09986">
        <ele>1043.32</ele>
        <time>2026-05-21T07:37:09.000Z</time>
      </trkpt>
      <trkpt lat="43.05446" lon="-0.10003">
        <ele>1046.44</ele>
        <time>2026-05-21T07:37:37.000Z</time>
      </trkpt>
      <trkpt lat="43.0543" lon="-0.09991">
        <ele>1047.09</ele>
        <time>2026-05-21T07:38:13.000Z</time>
      </trkpt>
      <trkpt lat="43.05416" lon="-0.09975">
        <ele>1055.13</ele>
        <time>2026-05-21T07:38:46.000Z</time>
      </trkpt>
      <trkpt lat="43.054" lon="-0.09961">
        <ele>1061.55</ele>
        <time>2026-05-21T07:39:10.000Z</time>
      </trkpt>
      <trkpt lat="43.05384" lon="-0.09948">
        <ele>1063.62</ele>
        <time>2026-05-21T07:39:30.000Z</time>
      </trkpt>
      <trkpt lat="43.05372" lon="-0.09929">
        <ele>1067.61</ele>
        <time>2026-05-21T07:39:50.000Z</time>
      </trkpt>
      <trkpt lat="43.05356" lon="-0.09915">
        <ele>1074.58</ele>
        <time>2026-05-21T07:40:09.000Z</time>
      </trkpt>
      <trkpt lat="43.0534" lon="-0.09902">
        <ele>1079.45</ele>
        <time>2026-05-21T07:40:30.000Z</time>
      </trkpt>
      <trkpt lat="43.05322" lon="-0.099">
        <ele>1083.84</ele>
        <time>2026-05-21T07:40:53.000Z</time>
      </trkpt>
      <trkpt lat="43.05304" lon="-0.09903">
        <ele>1088.57</ele>
        <time>2026-05-21T07:41:25.000Z</time>
      </trkpt>
      <trkpt lat="43.05287" lon="-0.09895">
        <ele>1090.37</ele>
        <time>2026-05-21T07:41:47.000Z</time>
      </trkpt>
      <trkpt lat="43.0527" lon="-0.09887">
        <ele>1089.3</ele>
        <time>2026-05-21T07:42:10.000Z</time>
      </trkpt>
      <trkpt lat="43.05252" lon="-0.0988">
        <ele>1093.53</ele>
        <time>2026-05-21T07:42:36.000Z</time>
      </trkpt>
      <trkpt lat="43.05234" lon="-0.09875">
        <ele>1099.99</ele>
        <time>2026-05-21T07:43:07.000Z</time>
      </trkpt>
      <trkpt lat="43.05216" lon="-0.09866">
        <ele>1105.41</ele>
        <time>2026-05-21T07:43:31.000Z</time>
      </trkpt>
      <trkpt lat="43.05198" lon="-0.09859">
        <ele>1112.89</ele>
        <time>2026-05-21T07:43:54.000Z</time>
      </trkpt>
      <trkpt lat="43.0518" lon="-0.09855">
        <ele>1116.03</ele>
        <time>2026-05-21T07:44:21.000Z</time>
      </trkpt>
      <trkpt lat="43.05162" lon="-0.09847">
        <ele>1125.6</ele>
        <time>2026-05-21T07:44:52.000Z</time>
      </trkpt>
      <trkpt lat="43.05146" lon="-0.09859">
        <ele>1130.82</ele>
        <time>2026-05-21T07:45:11.000Z</time>
      </trkpt>
      <trkpt lat="43.05128" lon="-0.09865">
        <ele>1138</ele>
        <time>2026-05-21T07:45:47.000Z</time>
      </trkpt>
      <trkpt lat="43.05112" lon="-0.09877">
        <ele>1137.97</ele>
        <time>2026-05-21T07:46:36.000Z</time>
      </trkpt>
      <trkpt lat="43.05102" lon="-0.09898">
        <ele>1149.79</ele>
        <time>2026-05-21T07:47:12.000Z</time>
      </trkpt>
      <trkpt lat="43.05094" lon="-0.09921">
        <ele>1151.58</ele>
        <time>2026-05-21T07:47:38.000Z</time>
      </trkpt>
      <trkpt lat="43.05076" lon="-0.09922">
        <ele>1154.8</ele>
        <time>2026-05-21T07:48:49.000Z</time>
      </trkpt>
      <trkpt lat="43.05057" lon="-0.0992">
        <ele>1162.66</ele>
        <time>2026-05-21T07:49:08.000Z</time>
      </trkpt>
      <trkpt lat="43.05039" lon="-0.09918">
        <ele>1165.81</ele>
        <time>2026-05-21T07:49:27.000Z</time>
      </trkpt>
      <trkpt lat="43.05024" lon="-0.09901">
        <ele>1169.43</ele>
        <time>2026-05-21T07:49:53.000Z</time>
      </trkpt>
      <trkpt lat="43.05007" lon="-0.09908">
        <ele>1177.16</ele>
        <time>2026-05-21T07:50:24.000Z</time>
      </trkpt>
      <trkpt lat="43.04989" lon="-0.09914">
        <ele>1183.86</ele>
        <time>2026-05-21T07:50:44.000Z</time>
      </trkpt>
      <trkpt lat="43.04971" lon="-0.09917">
        <ele>1186.3</ele>
        <time>2026-05-21T07:51:09.000Z</time>
      </trkpt>
      <trkpt lat="43.04953" lon="-0.09913">
        <ele>1190.67</ele>
        <time>2026-05-21T07:51:36.000Z</time>
      </trkpt>
      <trkpt lat="43.04934" lon="-0.09913">
        <ele>1192.96</ele>
        <time>2026-05-21T07:51:59.000Z</time>
      </trkpt>
      <trkpt lat="43.04917" lon="-0.0992">
        <ele>1200.57</ele>
        <time>2026-05-21T07:52:21.000Z</time>
      </trkpt>
      <trkpt lat="43.04915" lon="-0.09896">
        <ele>1210.75</ele>
        <time>2026-05-21T07:53:25.000Z</time>
      </trkpt>
      <trkpt lat="43.04923" lon="-0.09873">
        <ele>1219.48</ele>
        <time>2026-05-21T07:53:48.000Z</time>
      </trkpt>
      <trkpt lat="43.04934" lon="-0.09854">
        <ele>1221.59</ele>
        <time>2026-05-21T07:54:12.000Z</time>
      </trkpt>
      <trkpt lat="43.04944" lon="-0.09833">
        <ele>1231.77</ele>
        <time>2026-05-21T07:54:43.000Z</time>
      </trkpt>
      <trkpt lat="43.04955" lon="-0.09813">
        <ele>1233.64</ele>
        <time>2026-05-21T07:55:16.000Z</time>
      </trkpt>
      <trkpt lat="43.04967" lon="-0.09794">
        <ele>1235.79</ele>
        <time>2026-05-21T07:55:34.000Z</time>
      </trkpt>
      <trkpt lat="43.04949" lon="-0.0979">
        <ele>1246.54</ele>
        <time>2026-05-21T07:56:44.000Z</time>
      </trkpt>
      <trkpt lat="43.04931" lon="-0.09797">
        <ele>1255.01</ele>
        <time>2026-05-21T07:57:11.000Z</time>
      </trkpt>
      <trkpt lat="43.04941" lon="-0.09776">
        <ele>1261.67</ele>
        <time>2026-05-21T07:57:49.000Z</time>
      </trkpt>
      <trkpt lat="43.04954" lon="-0.09757">
        <ele>1264.53</ele>
        <time>2026-05-21T07:58:13.000Z</time>
      </trkpt>
      <trkpt lat="43.04968" lon="-0.0974">
        <ele>1271.44</ele>
        <time>2026-05-21T07:58:41.000Z</time>
      </trkpt>
      <trkpt lat="43.04983" lon="-0.09726">
        <ele>1268.82</ele>
        <time>2026-05-21T07:59:08.000Z</time>
      </trkpt>
      <trkpt lat="43.05" lon="-0.09715">
        <ele>1269.36</ele>
        <time>2026-05-21T07:59:31.000Z</time>
      </trkpt>
      <trkpt lat="43.05011" lon="-0.09696">
        <ele>1270.95</ele>
        <time>2026-05-21T08:00:08.000Z</time>
      </trkpt>
      <trkpt lat="43.05019" lon="-0.09672">
        <ele>1272.58</ele>
        <time>2026-05-21T08:00:28.000Z</time>
      </trkpt>
      <trkpt lat="43.05029" lon="-0.09651">
        <ele>1284.7</ele>
        <time>2026-05-21T08:00:54.000Z</time>
      </trkpt>
      <trkpt lat="43.05042" lon="-0.09633">
        <ele>1292.47</ele>
        <time>2026-05-21T08:01:16.000Z</time>
      </trkpt>
      <trkpt lat="43.05055" lon="-0.09616">
        <ele>1294.72</ele>
        <time>2026-05-21T08:01:37.000Z</time>
      </trkpt>
      <trkpt lat="43.05037" lon="-0.09614">
        <ele>1299.98</ele>
        <time>2026-05-21T08:02:17.000Z</time>
      </trkpt>
      <trkpt lat="43.05033" lon="-0.09589">
        <ele>1310.35</ele>
        <time>2026-05-21T08:03:15.000Z</time>
      </trkpt>
      <trkpt lat="43.05047" lon="-0.09572">
        <ele>1316.5</ele>
        <time>2026-05-21T08:03:35.000Z</time>
      </trkpt>
      <trkpt lat="43.05059" lon="-0.09553">
        <ele>1322.35</ele>
        <time>2026-05-21T08:03:54.000Z</time>
      </trkpt>
      <trkpt lat="43.05073" lon="-0.09538">
        <ele>1328.62</ele>
        <time>2026-05-21T08:04:17.000Z</time>
      </trkpt>
      <trkpt lat="43.05084" lon="-0.09519">
        <ele>1333.03</ele>
        <time>2026-05-21T08:04:38.000Z</time>
      </trkpt>
      <trkpt lat="43.05094" lon="-0.09497">
        <ele>1335.86</ele>
        <time>2026-05-21T08:05:02.000Z</time>
      </trkpt>
      <trkpt lat="43.05102" lon="-0.09475">
        <ele>1341.15</ele>
        <time>2026-05-21T08:05:23.000Z</time>
      </trkpt>
      <trkpt lat="43.05109" lon="-0.09452">
        <ele>1349.02</ele>
        <time>2026-05-21T08:05:43.000Z</time>
      </trkpt>
      <trkpt lat="43.05114" lon="-0.09428">
        <ele>1350.35</ele>
        <time>2026-05-21T08:05:58.000Z</time>
      </trkpt>
      <trkpt lat="43.05122" lon="-0.09406">
        <ele>1349.93</ele>
        <time>2026-05-21T08:06:20.000Z</time>
      </trkpt>
      <trkpt lat="43.05122" lon="-0.09381">
        <ele>1354.49</ele>
        <time>2026-05-21T08:06:38.000Z</time>
      </trkpt>
      <trkpt lat="43.05125" lon="-0.09356">
        <ele>1350.89</ele>
        <time>2026-05-21T08:06:56.000Z</time>
      </trkpt>
      <trkpt lat="43.0512" lon="-0.09331">
        <ele>1352.14</ele>
        <time>2026-05-21T08:07:11.000Z</time>
      </trkpt>
      <trkpt lat="43.05123" lon="-0.09305">
        <ele>1351.52</ele>
        <time>2026-05-21T08:07:20.000Z</time>
      </trkpt>
      <trkpt lat="43.05124" lon="-0.0928">
        <ele>1354.18</ele>
        <time>2026-05-21T08:07:30.000Z</time>
      </trkpt>
      <trkpt lat="43.05119" lon="-0.09254">
        <ele>1354.82</ele>
        <time>2026-05-21T08:07:39.000Z</time>
      </trkpt>
      <trkpt lat="43.0512" lon="-0.09229">
        <ele>1352.74</ele>
        <time>2026-05-21T08:07:52.000Z</time>
      </trkpt>
      <trkpt lat="43.05122" lon="-0.09204">
        <ele>1350.94</ele>
        <time>2026-05-21T08:08:06.000Z</time>
      </trkpt>
      <trkpt lat="43.05121" lon="-0.09178">
        <ele>1349.55</ele>
        <time>2026-05-21T08:08:20.000Z</time>
      </trkpt>
      <trkpt lat="43.05113" lon="-0.09154">
        <ele>1348.1</ele>
        <time>2026-05-21T08:08:34.000Z</time>
      </trkpt>
      <trkpt lat="43.05098" lon="-0.0914">
        <ele>1350.72</ele>
        <time>2026-05-21T08:09:05.000Z</time>
      </trkpt>
      <trkpt lat="43.05101" lon="-0.09165">
        <ele>1348.39</ele>
        <time>2026-05-21T08:11:54.000Z</time>
      </trkpt>
      <trkpt lat="43.05098" lon="-0.09189">
        <ele>1352.11</ele>
        <time>2026-05-21T08:12:18.000Z</time>
      </trkpt>
      <trkpt lat="43.05088" lon="-0.09211">
        <ele>1358.23</ele>
        <time>2026-05-21T08:12:42.000Z</time>
      </trkpt>
      <trkpt lat="43.0508" lon="-0.09234">
        <ele>1359.75</ele>
        <time>2026-05-21T08:13:01.000Z</time>
      </trkpt>
      <trkpt lat="43.05073" lon="-0.09257">
        <ele>1362.07</ele>
        <time>2026-05-21T08:13:31.000Z</time>
      </trkpt>
      <trkpt lat="43.05067" lon="-0.0928">
        <ele>1365.43</ele>
        <time>2026-05-21T08:13:50.000Z</time>
      </trkpt>
      <trkpt lat="43.05062" lon="-0.09304">
        <ele>1361.03</ele>
        <time>2026-05-21T08:14:05.000Z</time>
      </trkpt>
      <trkpt lat="43.05051" lon="-0.09324">
        <ele>1367.41</ele>
        <time>2026-05-21T08:14:21.000Z</time>
      </trkpt>
      <trkpt lat="43.05041" lon="-0.09345">
        <ele>1374.86</ele>
        <time>2026-05-21T08:14:38.000Z</time>
      </trkpt>
      <trkpt lat="43.05029" lon="-0.09363">
        <ele>1382.72</ele>
        <time>2026-05-21T08:14:59.000Z</time>
      </trkpt>
      <trkpt lat="43.05015" lon="-0.09379">
        <ele>1382.13</ele>
        <time>2026-05-21T08:15:21.000Z</time>
      </trkpt>
      <trkpt lat="43.04998" lon="-0.09392">
        <ele>1384.56</ele>
        <time>2026-05-21T08:15:37.000Z</time>
      </trkpt>
      <trkpt lat="43.04978" lon="-0.09397">
        <ele>1382.75</ele>
        <time>2026-05-21T08:15:46.000Z</time>
      </trkpt>
      <trkpt lat="43.0496" lon="-0.09405">
        <ele>1384.8</ele>
        <time>2026-05-21T08:16:01.000Z</time>
      </trkpt>
      <trkpt lat="43.04944" lon="-0.09415">
        <ele>1384.66</ele>
        <time>2026-05-21T08:16:14.000Z</time>
      </trkpt>
      <trkpt lat="43.04926" lon="-0.09425">
        <ele>1386.5</ele>
        <time>2026-05-21T08:16:27.000Z</time>
      </trkpt>
      <trkpt lat="43.04909" lon="-0.09433">
        <ele>1390.7</ele>
        <time>2026-05-21T08:16:38.000Z</time>
      </trkpt>
      <trkpt lat="43.04894" lon="-0.09448">
        <ele>1389.71</ele>
        <time>2026-05-21T08:16:52.000Z</time>
      </trkpt>
      <trkpt lat="43.04879" lon="-0.09465">
        <ele>1390.32</ele>
        <time>2026-05-21T08:17:08.000Z</time>
      </trkpt>
      <trkpt lat="43.04863" lon="-0.09476">
        <ele>1394.39</ele>
        <time>2026-05-21T08:17:24.000Z</time>
      </trkpt>
      <trkpt lat="43.0485" lon="-0.09494">
        <ele>1400.62</ele>
        <time>2026-05-21T08:17:42.000Z</time>
      </trkpt>
      <trkpt lat="43.04834" lon="-0.09508">
        <ele>1405.01</ele>
        <time>2026-05-21T08:18:00.000Z</time>
      </trkpt>
      <trkpt lat="43.04825" lon="-0.0953">
        <ele>1411.74</ele>
        <time>2026-05-21T08:18:25.000Z</time>
      </trkpt>
      <trkpt lat="43.04809" lon="-0.09542">
        <ele>1415.44</ele>
        <time>2026-05-21T08:18:41.000Z</time>
      </trkpt>
      <trkpt lat="43.04806" lon="-0.09567">
        <ele>1419.87</ele>
        <time>2026-05-21T08:19:10.000Z</time>
      </trkpt>
      <trkpt lat="43.04795" lon="-0.09587">
        <ele>1416.73</ele>
        <time>2026-05-21T08:23:42.000Z</time>
      </trkpt>
      <trkpt lat="43.04808" lon="-0.09568">
        <ele>1415.71</ele>
        <time>2026-05-21T08:25:07.000Z</time>
      </trkpt>
      <trkpt lat="43.0482" lon="-0.09549">
        <ele>1416.4</ele>
        <time>2026-05-21T08:25:25.000Z</time>
      </trkpt>
      <trkpt lat="43.04823" lon="-0.09524">
        <ele>1415.12</ele>
        <time>2026-05-21T08:25:43.000Z</time>
      </trkpt>
      <trkpt lat="43.04833" lon="-0.09503">
        <ele>1407.38</ele>
        <time>2026-05-21T08:26:01.000Z</time>
      </trkpt>
      <trkpt lat="43.04847" lon="-0.09486">
        <ele>1405.87</ele>
        <time>2026-05-21T08:26:13.000Z</time>
      </trkpt>
      <trkpt lat="43.0486" lon="-0.09468">
        <ele>1402.4</ele>
        <time>2026-05-21T08:26:27.000Z</time>
      </trkpt>
      <trkpt lat="43.04876" lon="-0.09453">
        <ele>1401.32</ele>
        <time>2026-05-21T08:26:41.000Z</time>
      </trkpt>
      <trkpt lat="43.04888" lon="-0.09434">
        <ele>1397.4</ele>
        <time>2026-05-21T08:26:54.000Z</time>
      </trkpt>
      <trkpt lat="43.04907" lon="-0.09428">
        <ele>1398.21</ele>
        <time>2026-05-21T08:27:04.000Z</time>
      </trkpt>
      <trkpt lat="43.04925" lon="-0.09421">
        <ele>1393.38</ele>
        <time>2026-05-21T08:27:15.000Z</time>
      </trkpt>
      <trkpt lat="43.04944" lon="-0.09412">
        <ele>1389.1</ele>
        <time>2026-05-21T08:27:29.000Z</time>
      </trkpt>
      <trkpt lat="43.04961" lon="-0.09401">
        <ele>1387.42</ele>
        <time>2026-05-21T08:27:42.000Z</time>
      </trkpt>
      <trkpt lat="43.04978" lon="-0.09393">
        <ele>1389.5</ele>
        <time>2026-05-21T08:27:50.000Z</time>
      </trkpt>
      <trkpt lat="43.04997" lon="-0.09387">
        <ele>1386.36</ele>
        <time>2026-05-21T08:28:00.000Z</time>
      </trkpt>
      <trkpt lat="43.05013" lon="-0.09373">
        <ele>1384.96</ele>
        <time>2026-05-21T08:28:11.000Z</time>
      </trkpt>
      <trkpt lat="43.05029" lon="-0.09361">
        <ele>1377.94</ele>
        <time>2026-05-21T08:28:28.000Z</time>
      </trkpt>
      <trkpt lat="43.0504" lon="-0.0934">
        <ele>1376.14</ele>
        <time>2026-05-21T08:28:41.000Z</time>
      </trkpt>
      <trkpt lat="43.05053" lon="-0.0932">
        <ele>1371.61</ele>
        <time>2026-05-21T08:28:49.000Z</time>
      </trkpt>
      <trkpt lat="43.05061" lon="-0.09297">
        <ele>1373.37</ele>
        <time>2026-05-21T08:28:57.000Z</time>
      </trkpt>
      <trkpt lat="43.05064" lon="-0.09271">
        <ele>1370.97</ele>
        <time>2026-05-21T08:29:08.000Z</time>
      </trkpt>
      <trkpt lat="43.05073" lon="-0.09249">
        <ele>1363.08</ele>
        <time>2026-05-21T08:29:19.000Z</time>
      </trkpt>
      <trkpt lat="43.05085" lon="-0.09229">
        <ele>1359.74</ele>
        <time>2026-05-21T08:29:30.000Z</time>
      </trkpt>
      <trkpt lat="43.05092" lon="-0.09205">
        <ele>1357.95</ele>
        <time>2026-05-21T08:29:39.000Z</time>
      </trkpt>
      <trkpt lat="43.05097" lon="-0.09181">
        <ele>1354.48</ele>
        <time>2026-05-21T08:29:47.000Z</time>
      </trkpt>
      <trkpt lat="43.05098" lon="-0.09156">
        <ele>1350.83</ele>
        <time>2026-05-21T08:29:56.000Z</time>
      </trkpt>
      <trkpt lat="43.05106" lon="-0.09134">
        <ele>1350.93</ele>
        <time>2026-05-21T08:30:08.000Z</time>
      </trkpt>
      <trkpt lat="43.05113" lon="-0.0911">
        <ele>1349.2</ele>
        <time>2026-05-21T08:30:21.000Z</time>
      </trkpt>
      <trkpt lat="43.05117" lon="-0.09086">
        <ele>1351.57</ele>
        <time>2026-05-21T08:30:34.000Z</time>
      </trkpt>
      <trkpt lat="43.05118" lon="-0.0906">
        <ele>1346.99</ele>
        <time>2026-05-21T08:30:43.000Z</time>
      </trkpt>
      <trkpt lat="43.0513" lon="-0.09039">
        <ele>1343.59</ele>
        <time>2026-05-21T08:30:52.000Z</time>
      </trkpt>
      <trkpt lat="43.05138" lon="-0.09015">
        <ele>1338.68</ele>
        <time>2026-05-21T08:31:02.000Z</time>
      </trkpt>
      <trkpt lat="43.05143" lon="-0.08989">
        <ele>1337.97</ele>
        <time>2026-05-21T08:31:12.000Z</time>
      </trkpt>
      <trkpt lat="43.05154" lon="-0.08968">
        <ele>1336.84</ele>
        <time>2026-05-21T08:31:21.000Z</time>
      </trkpt>
      <trkpt lat="43.05165" lon="-0.08948">
        <ele>1336.84</ele>
        <time>2026-05-21T08:31:30.000Z</time>
      </trkpt>
      <trkpt lat="43.05173" lon="-0.08923">
        <ele>1336.19</ele>
        <time>2026-05-21T08:31:38.000Z</time>
      </trkpt>
      <trkpt lat="43.05178" lon="-0.08899">
        <ele>1334.59</ele>
        <time>2026-05-21T08:31:46.000Z</time>
      </trkpt>
      <trkpt lat="43.05183" lon="-0.08875">
        <ele>1337.3</ele>
        <time>2026-05-21T08:31:54.000Z</time>
      </trkpt>
      <trkpt lat="43.05188" lon="-0.08848">
        <ele>1338.43</ele>
        <time>2026-05-21T08:32:02.000Z</time>
      </trkpt>
      <trkpt lat="43.05192" lon="-0.08823">
        <ele>1339.73</ele>
        <time>2026-05-21T08:32:11.000Z</time>
      </trkpt>
      <trkpt lat="43.05191" lon="-0.08796">
        <ele>1340.11</ele>
        <time>2026-05-21T08:32:20.000Z</time>
      </trkpt>
      <trkpt lat="43.05193" lon="-0.0877">
        <ele>1337.18</ele>
        <time>2026-05-21T08:32:30.000Z</time>
      </trkpt>
      <trkpt lat="43.05201" lon="-0.08746">
        <ele>1331.7</ele>
        <time>2026-05-21T08:32:43.000Z</time>
      </trkpt>
      <trkpt lat="43.05207" lon="-0.08721">
        <ele>1331.34</ele>
        <time>2026-05-21T08:32:50.000Z</time>
      </trkpt>
      <trkpt lat="43.05211" lon="-0.08695">
        <ele>1327.64</ele>
        <time>2026-05-21T08:33:04.000Z</time>
      </trkpt>
      <trkpt lat="43.05217" lon="-0.0867">
        <ele>1326.03</ele>
        <time>2026-05-21T08:33:16.000Z</time>
      </trkpt>
      <trkpt lat="43.05223" lon="-0.08647">
        <ele>1325.69</ele>
        <time>2026-05-21T08:33:28.000Z</time>
      </trkpt>
      <trkpt lat="43.05226" lon="-0.08621">
        <ele>1324.07</ele>
        <time>2026-05-21T08:34:24.000Z</time>
      </trkpt>
      <trkpt lat="43.05225" lon="-0.08595">
        <ele>1321.38</ele>
        <time>2026-05-21T08:34:37.000Z</time>
      </trkpt>
      <trkpt lat="43.05227" lon="-0.08568">
        <ele>1320.8</ele>
        <time>2026-05-21T08:34:49.000Z</time>
      </trkpt>
      <trkpt lat="43.05231" lon="-0.08543">
        <ele>1319.99</ele>
        <time>2026-05-21T08:35:03.000Z</time>
      </trkpt>
      <trkpt lat="43.05233" lon="-0.08516">
        <ele>1319.32</ele>
        <time>2026-05-21T08:35:16.000Z</time>
      </trkpt>
      <trkpt lat="43.05234" lon="-0.08491">
        <ele>1319.02</ele>
        <time>2026-05-21T08:35:28.000Z</time>
      </trkpt>
      <trkpt lat="43.05237" lon="-0.08466">
        <ele>1319.05</ele>
        <time>2026-05-21T08:35:41.000Z</time>
      </trkpt>
      <trkpt lat="43.05239" lon="-0.0844">
        <ele>1320.17</ele>
        <time>2026-05-21T08:35:54.000Z</time>
      </trkpt>
      <trkpt lat="43.05238" lon="-0.08415">
        <ele>1319.85</ele>
        <time>2026-05-21T08:36:06.000Z</time>
      </trkpt>
      <trkpt lat="43.05235" lon="-0.08388">
        <ele>1318.62</ele>
        <time>2026-05-21T08:36:18.000Z</time>
      </trkpt>
      <trkpt lat="43.05241" lon="-0.08364">
        <ele>1323.34</ele>
        <time>2026-05-21T08:36:41.000Z</time>
      </trkpt>
      <trkpt lat="43.05244" lon="-0.08337">
        <ele>1326.35</ele>
        <time>2026-05-21T08:36:58.000Z</time>
      </trkpt>
      <trkpt lat="43.05244" lon="-0.08312">
        <ele>1326.42</ele>
        <time>2026-05-21T08:37:16.000Z</time>
      </trkpt>
      <trkpt lat="43.05246" lon="-0.08287">
        <ele>1327.11</ele>
        <time>2026-05-21T08:37:30.000Z</time>
      </trkpt>
      <trkpt lat="43.0525" lon="-0.08261">
        <ele>1331.49</ele>
        <time>2026-05-21T08:37:48.000Z</time>
      </trkpt>
      <trkpt lat="43.05244" lon="-0.08237">
        <ele>1334.29</ele>
        <time>2026-05-21T08:38:05.000Z</time>
      </trkpt>
      <trkpt lat="43.05236" lon="-0.08214">
        <ele>1336.88</ele>
        <time>2026-05-21T08:38:19.000Z</time>
      </trkpt>
      <trkpt lat="43.0523" lon="-0.0819">
        <ele>1336.43</ele>
        <time>2026-05-21T08:38:38.000Z</time>
      </trkpt>
      <trkpt lat="43.05217" lon="-0.08172">
        <ele>1335.28</ele>
        <time>2026-05-21T08:38:58.000Z</time>
      </trkpt>
      <trkpt lat="43.05208" lon="-0.0815">
        <ele>1337.2</ele>
        <time>2026-05-21T08:39:33.000Z</time>
      </trkpt>
      <trkpt lat="43.05202" lon="-0.08127">
        <ele>1337.77</ele>
        <time>2026-05-21T08:39:50.000Z</time>
      </trkpt>
      <trkpt lat="43.05199" lon="-0.08103">
        <ele>1339.33</ele>
        <time>2026-05-21T08:40:06.000Z</time>
      </trkpt>
      <trkpt lat="43.05189" lon="-0.08081">
        <ele>1341.21</ele>
        <time>2026-05-21T08:40:29.000Z</time>
      </trkpt>
      <trkpt lat="43.05196" lon="-0.08105">
        <ele>1335.73</ele>
        <time>2026-05-21T08:42:03.000Z</time>
      </trkpt>
      <trkpt lat="43.05201" lon="-0.08129">
        <ele>1334.54</ele>
        <time>2026-05-21T08:42:17.000Z</time>
      </trkpt>
      <trkpt lat="43.05207" lon="-0.08154">
        <ele>1333.19</ele>
        <time>2026-05-21T08:42:31.000Z</time>
      </trkpt>
      <trkpt lat="43.05219" lon="-0.08174">
        <ele>1334.57</ele>
        <time>2026-05-21T08:42:46.000Z</time>
      </trkpt>
      <trkpt lat="43.05224" lon="-0.08199">
        <ele>1334.16</ele>
        <time>2026-05-21T08:42:59.000Z</time>
      </trkpt>
      <trkpt lat="43.05235" lon="-0.08219">
        <ele>1335.08</ele>
        <time>2026-05-21T08:43:13.000Z</time>
      </trkpt>
      <trkpt lat="43.05248" lon="-0.08236">
        <ele>1337.36</ele>
        <time>2026-05-21T08:43:31.000Z</time>
      </trkpt>
      <trkpt lat="43.05262" lon="-0.08252">
        <ele>1340.14</ele>
        <time>2026-05-21T08:44:24.000Z</time>
      </trkpt>
      <trkpt lat="43.05264" lon="-0.08227">
        <ele>1330.55</ele>
        <time>2026-05-21T08:45:30.000Z</time>
      </trkpt>
      <trkpt lat="43.05281" lon="-0.0822">
        <ele>1318.01</ele>
        <time>2026-05-21T08:46:49.000Z</time>
      </trkpt>
      <trkpt lat="43.053" lon="-0.08217">
        <ele>1300.14</ele>
        <time>2026-05-21T08:48:09.000Z</time>
      </trkpt>
      <trkpt lat="43.05318" lon="-0.08217">
        <ele>1287.96</ele>
        <time>2026-05-21T08:49:05.000Z</time>
      </trkpt>
      <trkpt lat="43.05336" lon="-0.08213">
        <ele>1279.99</ele>
        <time>2026-05-21T08:49:40.000Z</time>
      </trkpt>
      <trkpt lat="43.05354" lon="-0.08207">
        <ele>1271</ele>
        <time>2026-05-21T08:50:16.000Z</time>
      </trkpt>
      <trkpt lat="43.05371" lon="-0.08201">
        <ele>1260.59</ele>
        <time>2026-05-21T08:51:11.000Z</time>
      </trkpt>
      <trkpt lat="43.05389" lon="-0.08197">
        <ele>1252.12</ele>
        <time>2026-05-21T08:51:54.000Z</time>
      </trkpt>
      <trkpt lat="43.05406" lon="-0.08186">
        <ele>1241.8</ele>
        <time>2026-05-21T08:52:18.000Z</time>
      </trkpt>
      <trkpt lat="43.05422" lon="-0.08175">
        <ele>1235.21</ele>
        <time>2026-05-21T08:52:40.000Z</time>
      </trkpt>
      <trkpt lat="43.05436" lon="-0.08159">
        <ele>1228.74</ele>
        <time>2026-05-21T08:53:03.000Z</time>
      </trkpt>
      <trkpt lat="43.05453" lon="-0.08167">
        <ele>1211.37</ele>
        <time>2026-05-21T08:53:58.000Z</time>
      </trkpt>
      <trkpt lat="43.05472" lon="-0.08168">
        <ele>1199.03</ele>
        <time>2026-05-21T08:55:04.000Z</time>
      </trkpt>
      <trkpt lat="43.05489" lon="-0.0816">
        <ele>1186.62</ele>
        <time>2026-05-21T08:55:54.000Z</time>
      </trkpt>
      <trkpt lat="43.05508" lon="-0.08156">
        <ele>1186.16</ele>
        <time>2026-05-21T08:56:16.000Z</time>
      </trkpt>
      <trkpt lat="43.05525" lon="-0.08144">
        <ele>1179.65</ele>
        <time>2026-05-21T08:56:34.000Z</time>
      </trkpt>
      <trkpt lat="43.05542" lon="-0.08135">
        <ele>1179.34</ele>
        <time>2026-05-21T08:56:49.000Z</time>
      </trkpt>
      <trkpt lat="43.05558" lon="-0.08123">
        <ele>1168.39</ele>
        <time>2026-05-21T08:58:06.000Z</time>
      </trkpt>
      <trkpt lat="43.05576" lon="-0.08115">
        <ele>1163.72</ele>
        <time>2026-05-21T08:58:19.000Z</time>
      </trkpt>
      <trkpt lat="43.05594" lon="-0.08104">
        <ele>1163.08</ele>
        <time>2026-05-21T08:58:33.000Z</time>
      </trkpt>
      <trkpt lat="43.05611" lon="-0.08094">
        <ele>1160.49</ele>
        <time>2026-05-21T08:58:46.000Z</time>
      </trkpt>
      <trkpt lat="43.05627" lon="-0.08083">
        <ele>1164.29</ele>
        <time>2026-05-21T08:59:02.000Z</time>
      </trkpt>
      <trkpt lat="43.05645" lon="-0.08075">
        <ele>1165.7</ele>
        <time>2026-05-21T08:59:18.000Z</time>
      </trkpt>
      <trkpt lat="43.05663" lon="-0.08066">
        <ele>1162.54</ele>
        <time>2026-05-21T08:59:33.000Z</time>
      </trkpt>
      <trkpt lat="43.05678" lon="-0.08053">
        <ele>1159.59</ele>
        <time>2026-05-21T08:59:52.000Z</time>
      </trkpt>
      <trkpt lat="43.05692" lon="-0.08036">
        <ele>1156.57</ele>
        <time>2026-05-21T09:00:09.000Z</time>
      </trkpt>
      <trkpt lat="43.05706" lon="-0.0802">
        <ele>1151.13</ele>
        <time>2026-05-21T09:00:26.000Z</time>
      </trkpt>
      <trkpt lat="43.05723" lon="-0.08009">
        <ele>1150.63</ele>
        <time>2026-05-21T09:00:38.000Z</time>
      </trkpt>
      <trkpt lat="43.05739" lon="-0.07998">
        <ele>1148.21</ele>
        <time>2026-05-21T09:00:53.000Z</time>
      </trkpt>
      <trkpt lat="43.05755" lon="-0.07985">
        <ele>1139.58</ele>
        <time>2026-05-21T09:01:10.000Z</time>
      </trkpt>
      <trkpt lat="43.05771" lon="-0.07971">
        <ele>1131.55</ele>
        <time>2026-05-21T09:01:26.000Z</time>
      </trkpt>
      <trkpt lat="43.0578" lon="-0.07993">
        <ele>1128.13</ele>
        <time>2026-05-21T09:02:29.000Z</time>
      </trkpt>
      <trkpt lat="43.05773" lon="-0.08017">
        <ele>1126.22</ele>
        <time>2026-05-21T09:02:41.000Z</time>
      </trkpt>
      <trkpt lat="43.05765" lon="-0.08039">
        <ele>1124.76</ele>
        <time>2026-05-21T09:02:53.000Z</time>
      </trkpt>
      <trkpt lat="43.05751" lon="-0.08056">
        <ele>1120.98</ele>
        <time>2026-05-21T09:03:10.000Z</time>
      </trkpt>
      <trkpt lat="43.05746" lon="-0.0808">
        <ele>1115.42</ele>
        <time>2026-05-21T09:03:26.000Z</time>
      </trkpt>
      <trkpt lat="43.05741" lon="-0.08104">
        <ele>1108.7</ele>
        <time>2026-05-21T09:03:48.000Z</time>
      </trkpt>
      <trkpt lat="43.05736" lon="-0.08128">
        <ele>1103.19</ele>
        <time>2026-05-21T09:04:21.000Z</time>
      </trkpt>
      <trkpt lat="43.05733" lon="-0.08153">
        <ele>1096.11</ele>
        <time>2026-05-21T09:04:44.000Z</time>
      </trkpt>
      <trkpt lat="43.05727" lon="-0.08177">
        <ele>1090.09</ele>
        <time>2026-05-21T09:05:06.000Z</time>
      </trkpt>
      <trkpt lat="43.05722" lon="-0.08201">
        <ele>1081.93</ele>
        <time>2026-05-21T09:05:29.000Z</time>
      </trkpt>
      <trkpt lat="43.05713" lon="-0.08224">
        <ele>1074.15</ele>
        <time>2026-05-21T09:05:51.000Z</time>
      </trkpt>
      <trkpt lat="43.05731" lon="-0.08225">
        <ele>1066.43</ele>
        <time>2026-05-21T09:06:23.000Z</time>
      </trkpt>
      <trkpt lat="43.05745" lon="-0.08242">
        <ele>1056.13</ele>
        <time>2026-05-21T09:06:59.000Z</time>
      </trkpt>
      <trkpt lat="43.05742" lon="-0.08267">
        <ele>1046.95</ele>
        <time>2026-05-21T09:07:29.000Z</time>
      </trkpt>
      <trkpt lat="43.05728" lon="-0.08283">
        <ele>1038.7</ele>
        <time>2026-05-21T09:07:55.000Z</time>
      </trkpt>
      <trkpt lat="43.05716" lon="-0.08303">
        <ele>1035.42</ele>
        <time>2026-05-21T09:08:25.000Z</time>
      </trkpt>
      <trkpt lat="43.05712" lon="-0.08328">
        <ele>1029.64</ele>
        <time>2026-05-21T09:09:09.000Z</time>
      </trkpt>
      <trkpt lat="43.05708" lon="-0.08352">
        <ele>1024.27</ele>
        <time>2026-05-21T09:09:29.000Z</time>
      </trkpt>
      <trkpt lat="43.05713" lon="-0.08377">
        <ele>1015.67</ele>
        <time>2026-05-21T09:09:53.000Z</time>
      </trkpt>
      <trkpt lat="43.05704" lon="-0.08398">
        <ele>1014.56</ele>
        <time>2026-05-21T09:10:15.000Z</time>
      </trkpt>
      <trkpt lat="43.05718" lon="-0.08415">
        <ele>1004.04</ele>
        <time>2026-05-21T09:10:56.000Z</time>
      </trkpt>
      <trkpt lat="43.05736" lon="-0.08407">
        <ele>994.83</ele>
        <time>2026-05-21T09:11:25.000Z</time>
      </trkpt>
      <trkpt lat="43.05754" lon="-0.08401">
        <ele>987.07</ele>
        <time>2026-05-21T09:11:50.000Z</time>
      </trkpt>
      <trkpt lat="43.05768" lon="-0.08385">
        <ele>980.88</ele>
        <time>2026-05-21T09:12:10.000Z</time>
      </trkpt>
      <trkpt lat="43.05786" lon="-0.08377">
        <ele>971.61</ele>
        <time>2026-05-21T09:12:34.000Z</time>
      </trkpt>
      <trkpt lat="43.05802" lon="-0.08365">
        <ele>970.04</ele>
        <time>2026-05-21T09:12:49.000Z</time>
      </trkpt>
      <trkpt lat="43.05819" lon="-0.08357">
        <ele>957.65</ele>
        <time>2026-05-21T09:13:17.000Z</time>
      </trkpt>
      <trkpt lat="43.05837" lon="-0.08351">
        <ele>944.54</ele>
        <time>2026-05-21T09:13:43.000Z</time>
      </trkpt>
      <trkpt lat="43.05855" lon="-0.0835">
        <ele>940.41</ele>
        <time>2026-05-21T09:14:01.000Z</time>
      </trkpt>
      <trkpt lat="43.05872" lon="-0.08342">
        <ele>933.92</ele>
        <time>2026-05-21T09:14:20.000Z</time>
      </trkpt>
      <trkpt lat="43.0589" lon="-0.08335">
        <ele>924.86</ele>
        <time>2026-05-21T09:14:43.000Z</time>
      </trkpt>
      <trkpt lat="43.05908" lon="-0.08337">
        <ele>911.39</ele>
        <time>2026-05-21T09:15:06.000Z</time>
      </trkpt>
      <trkpt lat="43.05927" lon="-0.08343">
        <ele>908</ele>
        <time>2026-05-21T09:15:25.000Z</time>
      </trkpt>
      <trkpt lat="43.05946" lon="-0.08344">
        <ele>900.8</ele>
        <time>2026-05-21T09:15:42.000Z</time>
      </trkpt>
      <trkpt lat="43.05963" lon="-0.08335">
        <ele>888.52</ele>
        <time>2026-05-21T09:16:08.000Z</time>
      </trkpt>
      <trkpt lat="43.05982" lon="-0.08335">
        <ele>881.68</ele>
        <time>2026-05-21T09:16:30.000Z</time>
      </trkpt>
      <trkpt lat="43.05999" lon="-0.08343">
        <ele>874.49</ele>
        <time>2026-05-21T09:16:52.000Z</time>
      </trkpt>
      <trkpt lat="43.06016" lon="-0.08334">
        <ele>868.12</ele>
        <time>2026-05-21T09:17:14.000Z</time>
      </trkpt>
      <trkpt lat="43.06034" lon="-0.08328">
        <ele>858.8</ele>
        <time>2026-05-21T09:17:35.000Z</time>
      </trkpt>
      <trkpt lat="43.06052" lon="-0.08321">
        <ele>851.32</ele>
        <time>2026-05-21T09:17:55.000Z</time>
      </trkpt>
      <trkpt lat="43.0607" lon="-0.0832">
        <ele>841.21</ele>
        <time>2026-05-21T09:18:17.000Z</time>
      </trkpt>
      <trkpt lat="43.06089" lon="-0.08323">
        <ele>832.96</ele>
        <time>2026-05-21T09:18:36.000Z</time>
      </trkpt>
      <trkpt lat="43.06092" lon="-0.08349">
        <ele>831.96</ele>
        <time>2026-05-21T09:19:14.000Z</time>
      </trkpt>
      <trkpt lat="43.06099" lon="-0.08373">
        <ele>831.47</ele>
        <time>2026-05-21T09:19:49.000Z</time>
      </trkpt>
      <trkpt lat="43.06102" lon="-0.08398">
        <ele>837.99</ele>
        <time>2026-05-21T09:20:03.000Z</time>
      </trkpt>
      <trkpt lat="43.06105" lon="-0.08423">
        <ele>837.02</ele>
        <time>2026-05-21T09:20:15.000Z</time>
      </trkpt>
      <trkpt lat="43.06113" lon="-0.08446">
        <ele>834.7</ele>
        <time>2026-05-21T09:20:27.000Z</time>
      </trkpt>
      <trkpt lat="43.06127" lon="-0.08462">
        <ele>838.94</ele>
        <time>2026-05-21T09:20:39.000Z</time>
      </trkpt>
      <trkpt lat="43.06143" lon="-0.08473">
        <ele>830.71</ele>
        <time>2026-05-21T09:22:10.000Z</time>
      </trkpt>
      <trkpt lat="43.06159" lon="-0.08486">
        <ele>825.15</ele>
        <time>2026-05-21T09:22:22.000Z</time>
      </trkpt>
      <trkpt lat="43.06174" lon="-0.08503">
        <ele>822.75</ele>
        <time>2026-05-21T09:22:29.000Z</time>
      </trkpt>
      <trkpt lat="43.06192" lon="-0.08513">
        <ele>827.8</ele>
        <time>2026-05-21T09:22:34.000Z</time>
      </trkpt>
      <trkpt lat="43.0621" lon="-0.08522">
        <ele>828.28</ele>
        <time>2026-05-21T09:22:40.000Z</time>
      </trkpt>
      <trkpt lat="43.06227" lon="-0.08529">
        <ele>827.14</ele>
        <time>2026-05-21T09:22:46.000Z</time>
      </trkpt>
      <trkpt lat="43.06247" lon="-0.08535">
        <ele>829.12</ele>
        <time>2026-05-21T09:22:53.000Z</time>
      </trkpt>
      <trkpt lat="43.06266" lon="-0.08535">
        <ele>824.91</ele>
        <time>2026-05-21T09:23:02.000Z</time>
      </trkpt>
      <trkpt lat="43.06285" lon="-0.08536">
        <ele>815.29</ele>
        <time>2026-05-21T09:23:12.000Z</time>
      </trkpt>
      <trkpt lat="43.06303" lon="-0.08533">
        <ele>810.67</ele>
        <time>2026-05-21T09:23:20.000Z</time>
      </trkpt>
      <trkpt lat="43.0632" lon="-0.08524">
        <ele>811.66</ele>
        <time>2026-05-21T09:23:27.000Z</time>
      </trkpt>
      <trkpt lat="43.06339" lon="-0.08514">
        <ele>805.11</ele>
        <time>2026-05-21T09:23:35.000Z</time>
      </trkpt>
      <trkpt lat="43.06358" lon="-0.08515">
        <ele>802.64</ele>
        <time>2026-05-21T09:23:42.000Z</time>
      </trkpt>
      <trkpt lat="43.06378" lon="-0.08516">
        <ele>800.14</ele>
        <time>2026-05-21T09:23:50.000Z</time>
      </trkpt>
      <trkpt lat="43.06396" lon="-0.08522">
        <ele>796.55</ele>
        <time>2026-05-21T09:23:58.000Z</time>
      </trkpt>
      <trkpt lat="43.06415" lon="-0.08534">
        <ele>792.76</ele>
        <time>2026-05-21T09:24:06.000Z</time>
      </trkpt>
      <trkpt lat="43.06431" lon="-0.08549">
        <ele>790.03</ele>
        <time>2026-05-21T09:24:14.000Z</time>
      </trkpt>
      <trkpt lat="43.06446" lon="-0.08566">
        <ele>787.96</ele>
        <time>2026-05-21T09:24:22.000Z</time>
      </trkpt>
      <trkpt lat="43.06458" lon="-0.08585">
        <ele>784.76</ele>
        <time>2026-05-21T09:24:30.000Z</time>
      </trkpt>
      <trkpt lat="43.0647" lon="-0.08606">
        <ele>782.45</ele>
        <time>2026-05-21T09:24:39.000Z</time>
      </trkpt>
      <trkpt lat="43.06483" lon="-0.08625">
        <ele>780.08</ele>
        <time>2026-05-21T09:24:47.000Z</time>
      </trkpt>
      <trkpt lat="43.06495" lon="-0.08644">
        <ele>777.41</ele>
        <time>2026-05-21T09:24:56.000Z</time>
      </trkpt>
      <trkpt lat="43.06509" lon="-0.08662">
        <ele>775.78</ele>
        <time>2026-05-21T09:25:14.000Z</time>
      </trkpt>
      <trkpt lat="43.06522" lon="-0.08681">
        <ele>769.47</ele>
        <time>2026-05-21T09:25:24.000Z</time>
      </trkpt>
      <trkpt lat="43.06534" lon="-0.087">
        <ele>767.08</ele>
        <time>2026-05-21T09:25:32.000Z</time>
      </trkpt>
      <trkpt lat="43.06545" lon="-0.08723">
        <ele>765.57</ele>
        <time>2026-05-21T09:25:41.000Z</time>
      </trkpt>
      <trkpt lat="43.06556" lon="-0.08744">
        <ele>765.15</ele>
        <time>2026-05-21T09:25:49.000Z</time>
      </trkpt>
      <trkpt lat="43.06567" lon="-0.08764">
        <ele>763.54</ele>
        <time>2026-05-21T09:25:57.000Z</time>
      </trkpt>
      <trkpt lat="43.06583" lon="-0.0878">
        <ele>762.53</ele>
        <time>2026-05-21T09:26:05.000Z</time>
      </trkpt>
      <trkpt lat="43.06596" lon="-0.08801">
        <ele>762.5</ele>
        <time>2026-05-21T09:26:13.000Z</time>
      </trkpt>
      <trkpt lat="43.06604" lon="-0.08826">
        <ele>761.71</ele>
        <time>2026-05-21T09:26:21.000Z</time>
      </trkpt>
      <trkpt lat="43.06613" lon="-0.08851">
        <ele>760.29</ele>
        <time>2026-05-21T09:26:29.000Z</time>
      </trkpt>
      <trkpt lat="43.06622" lon="-0.08875">
        <ele>760.04</ele>
        <time>2026-05-21T09:26:37.000Z</time>
      </trkpt>
      <trkpt lat="43.06631" lon="-0.08898">
        <ele>759.7</ele>
        <time>2026-05-21T09:26:45.000Z</time>
      </trkpt>
      <trkpt lat="43.06639" lon="-0.08921">
        <ele>756.56</ele>
        <time>2026-05-21T09:26:54.000Z</time>
      </trkpt>
      <trkpt lat="43.06651" lon="-0.0894">
        <ele>753.72</ele>
        <time>2026-05-21T09:27:03.000Z</time>
      </trkpt>
      <trkpt lat="43.06663" lon="-0.08962">
        <ele>750.92</ele>
        <time>2026-05-21T09:27:12.000Z</time>
      </trkpt>
      <trkpt lat="43.06674" lon="-0.08985">
        <ele>750.15</ele>
        <time>2026-05-21T09:27:21.000Z</time>
      </trkpt>
      <trkpt lat="43.06682" lon="-0.09007">
        <ele>746.37</ele>
        <time>2026-05-21T09:27:30.000Z</time>
      </trkpt>
      <trkpt lat="43.06692" lon="-0.09031">
        <ele>742.52</ele>
        <time>2026-05-21T09:27:40.000Z</time>
      </trkpt>
      <trkpt lat="43.06702" lon="-0.09052">
        <ele>741.98</ele>
        <time>2026-05-21T09:27:49.000Z</time>
      </trkpt>
      <trkpt lat="43.06712" lon="-0.09073">
        <ele>741.03</ele>
        <time>2026-05-21T09:27:58.000Z</time>
      </trkpt>
      <trkpt lat="43.06723" lon="-0.09093">
        <ele>736.88</ele>
        <time>2026-05-21T09:28:06.000Z</time>
      </trkpt>
      <trkpt lat="43.06733" lon="-0.09114">
        <ele>734.64</ele>
        <time>2026-05-21T09:28:14.000Z</time>
      </trkpt>
      <trkpt lat="43.06745" lon="-0.09134">
        <ele>734.01</ele>
        <time>2026-05-21T09:28:22.000Z</time>
      </trkpt>
      <trkpt lat="43.06761" lon="-0.09146">
        <ele>733.88</ele>
        <time>2026-05-21T09:28:30.000Z</time>
      </trkpt>
      <trkpt lat="43.06779" lon="-0.09142">
        <ele>729.35</ele>
        <time>2026-05-21T09:28:38.000Z</time>
      </trkpt>
      <trkpt lat="43.06798" lon="-0.09136">
        <ele>729.25</ele>
        <time>2026-05-21T09:28:45.000Z</time>
      </trkpt>
      <trkpt lat="43.06816" lon="-0.09129">
        <ele>721.5</ele>
        <time>2026-05-21T09:28:54.000Z</time>
      </trkpt>
      <trkpt lat="43.06834" lon="-0.09123">
        <ele>720.07</ele>
        <time>2026-05-21T09:29:02.000Z</time>
      </trkpt>
      <trkpt lat="43.06854" lon="-0.09121">
        <ele>722.12</ele>
        <time>2026-05-21T09:29:10.000Z</time>
      </trkpt>
      <trkpt lat="43.06872" lon="-0.0912">
        <ele>724.25</ele>
        <time>2026-05-21T09:29:17.000Z</time>
      </trkpt>
      <trkpt lat="43.0689" lon="-0.0913">
        <ele>724.47</ele>
        <time>2026-05-21T09:29:26.000Z</time>
      </trkpt>
      <trkpt lat="43.06899" lon="-0.09151">
        <ele>724.82</ele>
        <time>2026-05-21T09:29:54.000Z</time>
      </trkpt>
    </trkseg>
  </trk>
</gpx>